Time;durP1;ratioP1;P1;durP2;ratioP2;P2;SDS_P1;SDS_P2;PMS_P1;PMS_P2;Temp;Humidity;BMP_temperature;BMP_pressure;BME280_temperature;BME280_humidity;BME280_pressure;Samples;Min_cycle;Max_cycle;Signal;HPM_P1;HPM_P2
2023/04/09 00:00:53;;;;;;;28.70;8.98;;;6.60;99.90;;;;;;4919927;29;20047;-80
2023/04/09 00:03:21;;;;;;;27.67;8.82;;;6.60;99.90;;;;;;4920520;29;20043;-80
2023/04/09 00:05:48;;;;;;;26.85;10.60;;;6.60;99.90;;;;;;4935231;29;20107;-79
2023/04/09 00:08:14;;;;;;;28.13;9.63;;;6.50;99.90;;;;;;4938629;29;20422;-79
2023/04/09 00:10:41;;;;;;;31.25;10.32;;;6.40;99.90;;;;;;4956550;28;20038;-81
2023/04/09 00:13:08;;;;;;;35.72;10.85;;;6.40;99.90;;;;;;4955260;29;20051;-78
2023/04/09 00:15:35;;;;;;;31.75;11.40;;;6.30;99.90;;;;;;4956600;29;20474;-81
2023/04/09 00:18:01;;;;;;;25.90;9.95;;;6.30;99.90;;;;;;4956555;29;20367;-82
2023/04/09 00:20:28;;;;;;;36.80;11.52;;;6.40;99.90;;;;;;4955401;28;20058;-82
2023/04/09 00:22:55;;;;;;;30.58;10.85;;;6.50;99.90;;;;;;4939130;28;20055;-80
2023/04/09 00:25:22;;;;;;;33.45;10.88;;;6.50;99.90;;;;;;4956469;28;20040;-80
2023/04/09 00:27:48;;;;;;;28.45;9.70;;;6.50;99.90;;;;;;4955185;28;20047;-79
2023/04/09 00:30:15;;;;;;;29.85;10.52;;;6.50;99.90;;;;;;4939810;29;20447;-80
2023/04/09 00:32:42;;;;;;;30.50;9.73;;;6.50;99.90;;;;;;4954792;28;20043;-80
2023/04/09 00:35:09;;;;;;;25.95;9.85;;;6.60;99.90;;;;;;4939268;28;20443;-80
2023/04/09 00:37:35;;;;;;;27.92;9.35;;;6.60;99.90;;;;;;4956410;28;20043;-80
2023/04/09 00:40:02;;;;;;;34.72;11.50;;;6.70;99.90;;;;;;4938328;29;20129;-81
2023/04/09 00:42:29;;;;;;;36.08;11.40;;;6.80;99.90;;;;;;4939133;29;20053;-80
2023/04/09 00:44:56;;;;;;;34.30;11.77;;;6.90;99.90;;;;;;4939174;29;20435;-80
2023/04/09 00:47:22;;;;;;;38.38;12.45;;;6.90;99.90;;;;;;4955134;29;20039;-79
2023/04/09 00:49:49;;;;;;;30.40;10.70;;;7.00;99.90;;;;;;4939435;28;20047;-81
2023/04/09 00:52:16;;;;;;;37.08;11.43;;;7.00;99.90;;;;;;4955857;29;20039;-79
2023/04/09 00:54:42;;;;;;;36.65;11.15;;;7.10;99.90;;;;;;4938419;29;20433;-79
2023/04/09 00:57:11;;;;;;;36.25;12.00;;;7.20;99.90;;;;;;4939354;29;20047;-79
2023/04/09 00:59:37;;;;;;;34.80;11.98;;;7.20;99.90;;;;;;4951450;28;20098;-79
2023/04/09 01:02:04;;;;;;;41.60;14.00;;;7.20;99.90;;;;;;4941747;29;20195;-79
2023/04/09 01:04:31;;;;;;;36.03;11.05;;;7.30;99.90;;;;;;4955510;28;20457;-80
2023/04/09 01:06:58;;;;;;;34.75;12.55;;;7.20;99.90;;;;;;4922685;29;20051;-79
2023/04/09 01:09:25;;;;;;;33.33;11.63;;;7.20;99.90;;;;;;4923663;29;20135;-80
2023/04/09 01:11:53;;;;;;;33.10;11.75;;;7.10;99.90;;;;;;4923573;29;20047;-79
2023/04/09 01:14:20;;;;;;;34.05;12.43;;;7.10;99.90;;;;;;4939565;29;20052;-79
2023/04/09 01:16:47;;;;;;;29.80;10.77;;;7.10;99.90;;;;;;4923761;29;20047;-79
2023/04/09 01:19:14;;;;;;;29.02;10.85;;;7.00;99.90;;;;;;4923846;29;20087;-78
2023/04/09 01:21:41;;;;;;;33.92;11.30;;;7.00;99.90;;;;;;4923077;29;20046;-80
2023/04/09 01:24:08;;;;;;;36.58;11.27;;;7.00;99.90;;;;;;4940260;29;20079;-79
2023/04/09 01:26:39;;;;;;;33.33;10.38;;;6.90;99.90;;;;;;4922465;29;20071;-79
2023/04/09 01:29:05;;;;;;;37.70;11.40;;;6.90;99.90;;;;;;4923584;29;20344;-79
2023/04/09 01:31:32;;;;;;;30.63;10.57;;;6.90;99.90;;;;;;4922946;29;20055;-79
2023/04/09 01:33:59;;;;;;;41.28;12.55;;;6.90;99.90;;;;;;4922500;29;20470;-79
2023/04/09 01:36:28;;;;;;;32.53;10.73;;;7.00;99.90;;;;;;4923240;29;20486;-80
2023/04/09 01:38:55;;;;;;;32.92;10.60;;;6.90;99.90;;;;;;4923574;29;20066;-79
2023/04/09 01:41:21;;;;;;;30.92;12.00;;;6.90;99.90;;;;;;4938545;29;20047;-79
2023/04/09 01:43:48;;;;;;;33.67;11.25;;;6.90;99.90;;;;;;4923143;29;20047;-79
2023/04/09 01:46:15;;;;;;;28.83;10.25;;;6.90;99.90;;;;;;4922095;29;20328;-79
2023/04/09 01:48:42;;;;;;;39.40;12.77;;;6.80;99.90;;;;;;4939816;29;20036;-80
2023/04/09 01:51:08;;;;;;;31.58;12.18;;;6.80;99.90;;;;;;4939848;29;20036;-81
2023/04/09 01:53:35;;;;;;;35.65;11.60;;;6.80;99.90;;;;;;4921538;29;20071;-80
2023/04/09 01:56:02;;;;;;;29.38;10.82;;;6.80;99.90;;;;;;4923083;29;20064;-81
2023/04/09 01:58:29;;;;;;;35.63;11.70;;;6.70;99.90;;;;;;4907115;29;20403;-80
2023/04/09 02:00:56;;;;;;;31.17;10.68;;;6.60;99.90;;;;;;4921792;29;20040;-80
2023/04/09 02:03:22;;;;;;;35.55;10.57;;;6.60;99.90;;;;;;4922466;29;20091;-80
2023/04/09 02:05:49;;;;;;;38.35;11.02;;;6.60;99.90;;;;;;4922551;29;20111;-80
2023/04/09 02:08:16;;;;;;;44.63;12.07;;;6.60;99.90;;;;;;4906366;29;20075;-80
2023/04/09 02:10:42;;;;;;;38.60;11.68;;;6.50;99.90;;;;;;4922444;29;20056;-80
2023/04/09 02:13:09;;;;;;;36.67;12.55;;;6.50;99.90;;;;;;4920501;29;20064;-80
2023/04/09 02:15:36;;;;;;;29.55;10.52;;;6.50;99.90;;;;;;4922912;29;20378;-80
2023/04/09 02:18:03;;;;;;;34.83;11.57;;;6.50;99.90;;;;;;4922721;29;20478;-81
2023/04/09 02:20:30;;;;;;;37.65;11.60;;;6.50;99.90;;;;;;4921504;29;20048;-80
2023/04/09 02:22:56;;;;;;;36.65;10.90;;;6.40;99.90;;;;;;4922403;29;20541;-81
2023/04/09 02:25:23;;;;;;;34.75;11.48;;;6.50;99.90;;;;;;4922458;29;20036;-80
2023/04/09 02:27:50;;;;;;;32.05;10.73;;;6.40;99.90;;;;;;4938149;29;20129;-80
2023/04/09 02:30:16;;;;;;;32.35;12.15;;;6.40;99.90;;;;;;4922390;29;20114;-80
2023/04/09 02:32:43;;;;;;;38.95;11.80;;;6.40;99.90;;;;;;4937668;29;20087;-80
2023/04/09 02:35:10;;;;;;;33.00;11.27;;;6.40;99.90;;;;;;4922484;29;20044;-80
2023/04/09 02:37:37;;;;;;;37.33;10.95;;;6.40;99.90;;;;;;4939228;29;20051;-80
2023/04/09 02:40:04;;;;;;;38.42;11.80;;;6.30;99.90;;;;;;4937675;29;20471;-80
2023/04/09 02:42:30;;;;;;;32.05;11.05;;;6.30;99.90;;;;;;4938504;29;20047;-80
2023/04/09 02:44:57;;;;;;;33.85;10.50;;;6.30;99.90;;;;;;4922180;29;20047;-80
2023/04/09 02:47:25;;;;;;;35.03;10.70;;;6.20;99.90;;;;;;4920913;29;20471;-80
2023/04/09 02:49:52;;;;;;;37.83;10.55;;;6.20;99.90;;;;;;4921961;29;20059;-80
2023/04/09 02:52:23;;;;;;;33.50;10.63;;;6.20;99.90;;;;;;4921873;29;20064;-80
2023/04/09 02:54:49;;;;;;;33.58;9.98;;;6.10;99.90;;;;;;4920620;29;20147;-80
2023/04/09 02:57:16;;;;;;;24.23;8.77;;;6.10;99.90;;;;;;4906248;29;20047;-80
2023/04/09 02:59:43;;;;;;;28.55;9.57;;;6.00;99.90;;;;;;4937461;29;20134;-80
2023/04/09 03:02:09;;;;;;;32.80;10.13;;;6.00;99.90;;;;;;4921324;29;20035;-80
2023/04/09 03:04:36;;;;;;;31.83;9.93;;;6.00;99.90;;;;;;4921556;29;20390;-80
2023/04/09 03:07:03;;;;;;;28.08;9.85;;;5.90;99.90;;;;;;4920674;29;20052;-80
2023/04/09 03:09:30;;;;;;;34.08;9.70;;;5.90;99.90;;;;;;4921514;29;20051;-80
2023/04/09 03:11:57;;;;;;;33.20;10.63;;;5.90;99.90;;;;;;4921225;29;20050;-81
2023/04/09 03:14:24;;;;;;;28.63;9.43;;;5.90;99.90;;;;;;4937329;29;20047;-80
2023/04/09 03:16:50;;;;;;;27.55;9.15;;;5.90;99.90;;;;;;4938169;29;20071;-80
2023/04/09 03:19:17;;;;;;;29.17;8.95;;;5.90;99.90;;;;;;4920628;29;20055;-80
2023/04/09 03:21:45;;;;;;;30.23;9.05;;;5.80;99.90;;;;;;4920951;29;20051;-80
2023/04/09 03:24:12;;;;;;;34.28;9.75;;;5.80;99.90;;;;;;4920961;29;20048;-80
2023/04/09 03:26:39;;;;;;;29.77;8.65;;;5.80;99.90;;;;;;4905072;29;20051;-80
2023/04/09 03:29:06;;;;;;;31.13;9.00;;;5.80;99.90;;;;;;4920767;29;20051;-80
2023/04/09 03:31:32;;;;;;;27.95;8.95;;;5.80;99.90;;;;;;4937606;29;20039;-81
2023/04/09 03:33:59;;;;;;;27.45;8.48;;;5.70;99.90;;;;;;4936859;29;20054;-80
2023/04/09 03:36:27;;;;;;;34.17;9.23;;;5.80;99.90;;;;;;4920334;29;20043;-81
2023/04/09 03:39:01;;;;;;;24.70;8.70;;;5.60;99.90;;;;;;4921131;29;20286;-81
2023/04/09 03:41:37;;;;;;;28.15;9.40;;;5.60;99.90;;;;;;4905273;29;20047;-80
2023/04/09 03:44:08;;;;;;;28.98;9.30;;;5.60;99.90;;;;;;4906055;29;20386;-80
2023/04/09 03:46:45;;;;;;;27.90;8.82;;;5.50;99.90;;;;;;4920056;29;20381;-80
2023/04/09 03:49:15;;;;;;;25.55;8.75;;;5.50;99.90;;;;;;4921029;29;20127;-80
2023/04/09 03:51:43;;;;;;;28.58;9.20;;;5.50;99.90;;;;;;4920595;29;20410;-79
2023/04/09 03:54:10;;;;;;;24.98;8.85;;;5.50;99.90;;;;;;4919917;29;20047;-80
2023/04/09 03:56:38;;;;;;;32.38;10.15;;;5.50;99.90;;;;;;4921198;29;20099;-80
2023/04/09 03:59:08;;;;;;;29.20;9.57;;;5.50;99.90;;;;;;4920775;29;20135;-80
2023/04/09 04:01:41;;;;;;;31.98;10.73;;;5.40;99.90;;;;;;4920117;29;20055;-80
2023/04/09 04:04:08;;;;;;;26.85;9.65;;;5.40;99.90;;;;;;4920393;29;20142;-80
2023/04/09 04:06:40;;;;;;;30.48;10.35;;;5.40;99.90;;;;;;4919546;29;20051;-80
2023/04/09 04:09:19;;;;;;;29.35;10.18;;;5.50;99.90;;;;;;4920549;29;20071;-80
2023/04/09 04:11:51;;;;;;;;;;;5.40;99.90;;;;;;4920791;29;20062;-80
2023/04/09 04:14:20;;;;;;;33.17;11.15;;;5.40;99.90;;;;;;4920029;29;19922;-80
2023/04/09 04:16:53;;;;;;;;;;;5.40;99.90;;;;;;4921063;29;20051;-80
2023/04/09 04:19:24;;;;;;;34.75;9.93;;;5.40;99.90;;;;;;4919776;29;19934;-79
2023/04/09 04:21:51;;;;;;;34.22;10.88;;;5.40;99.90;;;;;;4920055;29;20394;-79
2023/04/09 04:24:18;;;;;;;27.48;9.38;;;5.40;99.90;;;;;;4920060;29;20039;-79
2023/04/09 04:26:45;;;;;;;30.58;9.80;;;5.40;99.90;;;;;;4919369;29;20043;-79
2023/04/09 04:29:15;;;;;;;32.67;10.45;;;5.40;99.90;;;;;;4920623;29;20131;-79
2023/04/09 04:31:50;;;;;;;42.33;12.07;;;5.30;99.90;;;;;;4920093;29;20055;-79
2023/04/09 04:34:20;;;;;;;33.95;10.35;;;5.30;99.90;;;;;;4919557;29;20139;-79
2023/04/09 04:36:55;;;;;;;36.30;11.90;;;5.30;99.90;;;;;;4924272;29;20134;-79
2023/04/09 04:39:22;;;;;;;40.63;12.18;;;5.30;99.90;;;;;;4940214;29;20099;-81
2023/04/09 04:42:00;;;;;;;39.95;12.82;;;5.30;99.90;;;;;;4924121;29;20114;-81
2023/04/09 04:44:27;;;;;;;35.88;12.02;;;5.30;99.90;;;;;;4924139;29;20475;-80
2023/04/09 04:47:02;;;;;;;36.60;11.55;;;5.30;99.90;;;;;;4923256;29;20181;-81
2023/04/09 04:49:30;;;;;;;31.75;11.07;;;5.30;99.90;;;;;;4924344;29;20043;-80
2023/04/09 04:51:58;;;;;;;40.40;11.85;;;5.20;99.90;;;;;;4923673;29;20062;-80
2023/04/09 04:54:27;;;;;;;34.53;11.63;;;5.30;99.90;;;;;;4923004;29;20046;-80
2023/04/09 04:56:56;;;;;;;40.72;12.07;;;5.20;99.90;;;;;;4924189;29;20075;-80
2023/04/09 04:59:31;;;;;;;38.60;12.80;;;5.20;99.90;;;;;;4908675;29;20130;-81
2023/04/09 05:02:03;;;;;;;;;;;5.20;99.90;;;;;;4923863;29;20134;-80
2023/04/09 05:04:37;;;;;;;38.55;11.60;;;5.20;99.90;;;;;;4923693;29;19974;-80
2023/04/09 05:07:05;;;;;;;39.80;12.98;;;5.10;99.90;;;;;;4922738;29;20051;-81
2023/04/09 05:09:43;;;;;;;40.63;13.93;;;5.10;99.90;;;;;;4923762;29;20039;-81
2023/04/09 05:12:10;;;;;;;37.78;12.75;;;5.10;99.90;;;;;;4923372;29;20047;-80
2023/04/09 05:14:36;;;;;;;41.03;13.00;;;5.10;99.90;;;;;;4922143;29;20062;-80
2023/04/09 05:17:03;;;;;;;42.28;13.95;;;5.00;99.90;;;;;;4923942;29;20142;-81
2023/04/09 05:19:39;;;;;;;41.33;12.63;;;5.00;99.90;;;;;;4922740;29;20044;-80
2023/04/09 05:22:06;;;;;;;40.28;13.75;;;5.00;99.90;;;;;;4923269;29;20083;-80
2023/04/09 05:24:33;;;;;;;37.38;11.90;;;5.00;99.90;;;;;;4940306;29;20082;-81
2023/04/09 05:27:00;;;;;;;35.00;11.82;;;5.00;99.90;;;;;;4922459;29;20458;-81
2023/04/09 05:29:27;;;;;;;32.88;11.77;;;5.00;99.90;;;;;;4923658;29;20066;-81
2023/04/09 05:31:54;;;;;;;38.60;12.95;;;5.00;99.90;;;;;;4923050;29;20107;-81
2023/04/09 05:34:29;;;;;;;38.55;12.27;;;5.00;99.90;;;;;;4922392;29;20134;-80
2023/04/09 05:36:56;;;;;;;35.63;11.18;;;5.00;99.90;;;;;;4923354;29;20107;-81
2023/04/09 05:39:24;;;;;;;43.42;11.85;;;5.00;99.90;;;;;;4922072;29;20079;-81
2023/04/09 05:41:51;;;;;;;41.97;13.30;;;5.00;99.90;;;;;;4923005;29;20127;-81
2023/04/09 05:44:31;;;;;;;37.65;11.20;;;5.00;99.90;;;;;;4923067;29;20047;-81
2023/04/09 05:47:04;;;;;;;39.55;10.70;;;5.00;99.90;;;;;;4921727;29;20044;-81
2023/04/09 05:49:40;;;;;;;75.07;12.18;;;5.00;99.90;;;;;;4923060;29;20054;-81
2023/04/09 05:52:11;;;;;;;54.58;11.38;;;4.90;99.90;;;;;;4939638;29;20124;-80
2023/04/09 05:54:38;;;;;;;65.85;11.50;;;5.00;99.90;;;;;;4921926;29;20382;-80
2023/04/09 05:57:07;;;;;;;42.30;11.23;;;5.00;99.90;;;;;;4923222;29;20048;-80
2023/04/09 05:59:37;;;;;;;41.33;11.50;;;5.10;99.90;;;;;;4921983;29;20123;-80
2023/04/09 06:02:03;;;;;;;59.83;11.27;;;5.10;99.90;;;;;;4939310;29;20134;-80
2023/04/09 06:04:32;;;;;;;42.55;11.68;;;5.10;99.90;;;;;;4922433;29;20360;-81
2023/04/09 06:06:59;;;;;;;33.50;10.02;;;5.10;99.90;;;;;;4938589;29;20066;-81
2023/04/09 06:09:26;;;;;;;46.05;9.50;;;5.20;99.90;;;;;;4922805;29;20054;-82
2023/04/09 06:11:53;;;;;;;42.63;11.73;;;5.20;99.90;;;;;;4922412;29;20091;-81
2023/04/09 06:14:20;;;;;;;32.13;9.23;;;5.20;99.90;;;;;;4921775;29;20474;-82
2023/04/09 06:16:46;;;;;;;48.03;10.48;;;5.30;99.90;;;;;;4907071;29;20391;-80
2023/04/09 06:19:14;;;;;;;32.40;8.60;;;5.30;99.90;;;;;;4939496;29;20417;-80
2023/04/09 06:21:41;;;;;;;46.47;9.43;;;5.40;99.90;;;;;;4938379;29;20057;-80
2023/04/09 06:24:07;;;;;;;70.70;10.68;;;5.40;99.90;;;;;;4939339;29;20054;-81
2023/04/09 06:26:35;;;;;;;41.90;9.00;;;5.40;99.90;;;;;;4938006;29;20443;-81
2023/04/09 06:29:02;;;;;;;41.53;9.07;;;5.40;99.90;;;;;;4922405;29;20040;-81
2023/04/09 06:31:28;;;;;;;44.85;9.35;;;5.40;99.90;;;;;;4938763;29;20043;-81
2023/04/09 06:33:55;;;;;;;39.97;9.85;;;5.40;99.90;;;;;;4905748;29;20068;-81
2023/04/09 06:36:22;;;;;;;27.15;9.43;;;5.40;99.90;;;;;;4922323;29;20135;-82
2023/04/09 06:38:49;;;;;;;39.55;9.73;;;5.50;99.90;;;;;;4922302;29;20044;-81
2023/04/09 06:41:15;;;;;;;52.45;10.23;;;5.50;99.90;;;;;;4905140;29;20139;-82
2023/04/09 06:43:42;;;;;;;31.48;8.52;;;5.60;99.90;;;;;;4906479;29;20051;-81
2023/04/09 06:46:09;;;;;;;57.00;10.43;;;5.60;99.90;;;;;;4921213;29;20051;-81
2023/04/09 06:48:35;;;;;;;71.47;10.68;;;5.60;99.90;;;;;;4938932;29;20050;-81
2023/04/09 06:51:02;;;;;;;46.63;9.73;;;5.60;99.90;;;;;;4938449;29;20054;-82
2023/04/09 06:53:29;;;;;;;53.63;10.13;;;5.60;99.90;;;;;;4921249;29;20051;-80
2023/04/09 06:55:56;;;;;;;53.35;10.10;;;5.70;99.90;;;;;;4938198;29;20048;-80
2023/04/09 06:58:22;;;;;;;30.75;8.45;;;5.80;99.90;;;;;;4937769;29;20099;-81
2023/04/09 07:00:49;;;;;;;37.72;11.73;;;5.90;99.90;;;;;;4937053;29;20044;-80
2023/04/09 07:03:16;;;;;;;46.70;9.43;;;6.10;99.90;;;;;;4938663;29;20367;-80
2023/04/09 07:05:43;;;;;;;55.47;10.57;;;6.10;99.90;;;;;;4938406;29;20055;-81
2023/04/09 07:08:10;;;;;;;61.30;10.93;;;6.20;99.90;;;;;;4920622;29;20051;-80
2023/04/09 07:10:37;;;;;;;32.42;9.18;;;6.20;99.90;;;;;;4922110;29;20107;-81
2023/04/09 07:13:03;;;;;;;45.40;10.27;;;6.20;99.90;;;;;;4920121;29;20497;-81
2023/04/09 07:15:30;;;;;;;30.58;10.10;;;6.20;99.90;;;;;;4938334;29;20046;-80
2023/04/09 07:17:57;;;;;;;62.88;13.82;;;6.30;99.90;;;;;;4921522;29;20061;-81
2023/04/09 07:20:24;;;;;;;42.15;11.00;;;6.30;99.90;;;;;;4920641;29;20467;-80
2023/04/09 07:22:50;;;;;;;29.30;9.10;;;6.30;99.90;;;;;;4921315;29;20463;-80
2023/04/09 07:25:17;;;;;;;35.78;10.98;;;6.40;99.90;;;;;;4905953;29;20044;-80
2023/04/09 07:27:44;;;;;;;36.47;9.90;;;6.60;99.90;;;;;;4937225;29;20044;-81
2023/04/09 07:30:10;;;;;;;29.02;9.63;;;6.80;99.90;;;;;;4938109;29;20044;-80
2023/04/09 07:32:37;;;;;;;30.65;10.27;;;6.90;99.90;;;;;;4920097;29;20035;-80
2023/04/09 07:35:04;;;;;;;38.40;10.57;;;7.10;99.90;;;;;;4921488;29;20047;-80
2023/04/09 07:37:30;;;;;;;33.08;12.32;;;7.30;99.90;;;;;;4921785;29;20047;-80
2023/04/09 07:39:57;;;;;;;34.45;11.75;;;7.40;99.90;;;;;;4920652;29;20062;-82
2023/04/09 07:42:24;;;;;;;36.28;12.00;;;7.60;99.90;;;;;;4920919;29;20043;-80
2023/04/09 07:44:51;;;;;;;33.55;12.43;;;7.70;99.90;;;;;;4920624;29;20051;-80
2023/04/09 07:47:17;;;;;;;30.60;10.82;;;7.90;99.90;;;;;;4936967;29;20115;-80
2023/04/09 07:49:44;;;;;;;35.83;12.13;;;8.10;99.90;;;;;;4921214;29;20035;-80
2023/04/09 07:52:11;;;;;;;38.65;12.55;;;8.20;99.90;;;;;;4920953;29;20054;-80
2023/04/09 07:54:38;;;;;;;29.05;11.25;;;8.30;99.90;;;;;;4936911;29;20044;-80
2023/04/09 07:57:04;;;;;;;35.88;11.80;;;8.30;99.90;;;;;;4937647;29;20063;-80
2023/04/09 07:59:31;;;;;;;33.08;12.65;;;8.40;99.90;;;;;;4936357;29;20035;-80
2023/04/09 08:01:58;;;;;;;35.22;11.93;;;8.60;99.90;;;;;;4937165;29;20052;-79
2023/04/09 08:04:25;;;;;;;32.20;11.55;;;8.70;99.90;;;;;;4920736;29;20434;-80
2023/04/09 08:06:52;;;;;;;34.97;13.15;;;9.00;99.90;;;;;;4919602;29;20056;-80
2023/04/09 08:09:19;;;;;;;38.50;13.05;;;9.10;99.90;;;;;;4920610;29;20067;-80
2023/04/09 08:11:46;;;;;;;36.63;13.40;;;9.30;99.90;;;;;;4920535;29;20040;-84
2023/04/09 08:14:12;;;;;;;38.47;14.90;;;9.50;99.90;;;;;;4919765;29;20123;-79
2023/04/09 08:16:40;;;;;;;37.53;14.60;;;9.70;99.90;;;;;;4937606;29;20043;-81
2023/04/09 08:19:07;;;;;;;38.75;14.32;;;9.80;99.90;;;;;;4920696;29;20048;-80
2023/04/09 08:21:33;;;;;;;39.55;14.25;;;9.90;99.90;;;;;;4919258;29;20474;-80
2023/04/09 08:24:03;;;;;;;36.63;13.98;;;10.10;99.90;;;;;;4937419;29;20040;-79
2023/04/09 08:26:29;;;;;;;38.20;13.88;;;10.20;99.90;;;;;;4919450;29;20061;-81
2023/04/09 08:28:56;;;;;;;43.08;16.35;;;10.40;99.90;;;;;;4937265;29;20048;-82
2023/04/09 08:31:23;;;;;;;37.75;15.15;;;10.50;99.90;;;;;;4920299;29;20054;-81
2023/04/09 08:33:52;;;;;;;41.38;15.27;;;10.60;99.90;;;;;;4936104;29;20483;-81
2023/04/09 08:36:19;;;;;;;40.95;16.42;;;10.90;99.90;;;;;;4936729;29;20075;-81
2023/04/09 08:38:46;;;;;;;40.22;15.68;;;11.00;99.90;;;;;;4937224;29;20054;-79
2023/04/09 08:41:13;;;;;;;39.75;15.75;;;11.20;99.90;;;;;;4919077;29;20063;-81
2023/04/09 08:43:40;;;;;;;39.92;14.90;;;11.50;99.90;;;;;;4920457;29;20036;-84
2023/04/09 08:46:24;;;;;;;37.00;14.98;;;11.60;99.90;;;;;;4936061;29;20534;-82
2023/04/09 08:48:51;;;;;;;39.28;15.40;;;11.70;99.90;;;;;;4920387;29;20459;-82
2023/04/09 08:51:18;;;;;;;35.30;15.82;;;11.90;99.90;;;;;;4920059;29;20055;-82
2023/04/09 08:53:46;;;;;;;37.90;15.27;;;12.00;99.90;;;;;;4935914;29;20432;-82
2023/04/09 08:56:13;;;;;;;42.35;15.52;;;12.10;99.90;;;;;;4937196;29;20043;-82
2023/04/09 08:58:39;;;;;;;42.70;16.98;;;12.30;99.90;;;;;;4920638;29;20054;-83
2023/04/09 09:01:06;;;;;;;39.25;16.33;;;12.40;99.90;;;;;;4918749;29;20470;-82
2023/04/09 09:03:33;;;;;;;38.25;16.73;;;12.50;99.90;;;;;;4904540;29;20351;-82
2023/04/09 09:06:00;;;;;;;43.05;16.80;;;12.70;99.90;;;;;;4918983;29;20092;-81
2023/04/09 09:08:26;;;;;;;45.65;17.95;;;12.60;99.90;;;;;;4920365;29;20044;-81
2023/04/09 09:10:53;;;;;;;37.65;15.43;;;12.50;99.90;;;;;;4936745;29;20054;-81
2023/04/09 09:13:21;;;;;;;35.90;14.30;;;12.40;99.90;;;;;;4919446;29;20040;-82
2023/04/09 09:15:49;;;;;;;35.50;14.75;;;12.40;99.90;;;;;;4920305;29;20056;-83
2023/04/09 09:18:16;;;;;;;42.00;15.27;;;12.20;99.90;;;;;;4920291;29;20043;-84
2023/04/09 09:20:42;;;;;;;28.92;13.20;;;12.40;99.90;;;;;;4919459;29;20122;-83
2023/04/09 09:23:10;;;;;;;30.73;12.43;;;12.50;99.90;;;;;;4941333;29;20047;-83
2023/04/09 09:25:37;;;;;;;30.95;13.25;;;12.60;99.90;;;;;;4923251;29;20059;-82
2023/04/09 09:28:03;;;;;;;34.05;13.63;;;12.80;99.90;;;;;;4922521;29;20043;-82
2023/04/09 09:30:31;;;;;;;32.65;14.18;;;13.00;99.90;;;;;;4939836;29;20040;-82
2023/04/09 09:32:58;;;;;;;37.95;14.77;;;13.20;99.90;;;;;;4939290;29;20043;-83
2023/04/09 09:35:24;;;;;;;31.95;11.70;;;13.40;99.90;;;;;;4923406;29;20044;-83
2023/04/09 09:37:53;;;;;;;32.10;13.63;;;13.50;99.90;;;;;;4940197;29;20071;-84
2023/04/09 09:40:20;;;;;;;30.30;13.82;;;13.70;99.90;;;;;;4922620;29;20127;-84
2023/04/09 09:42:47;;;;;;;30.60;11.95;;;13.80;99.90;;;;;;4922964;29;20134;-83
2023/04/09 09:45:13;;;;;;;23.90;11.90;;;13.80;99.90;;;;;;4923168;29;20044;-85
2023/04/09 09:47:40;;;;;;;30.83;12.85;;;13.70;99.90;;;;;;4922188;29;20055;-83
2023/04/09 09:50:07;;;;;;;27.42;11.68;;;13.90;99.90;;;;;;4923408;29;20043;-82
2023/04/09 09:52:34;;;;;;;26.95;11.95;;;14.10;99.90;;;;;;4923007;29;20044;-84
2023/04/09 09:55:00;;;;;;;29.95;12.65;;;14.10;99.90;;;;;;4922273;29;20051;-83
2023/04/09 09:57:27;;;;;;;24.50;10.18;;;14.10;99.90;;;;;;4907455;29;20044;-84
2023/04/09 09:59:53;;;;;;;27.33;10.43;;;14.10;99.90;;;;;;4922062;29;20478;-82
2023/04/09 10:02:20;;;;;;;21.60;9.10;;;14.00;99.90;;;;;;4932270;29;20039;-85
2023/04/09 10:04:47;;;;;;;24.02;9.80;;;13.80;99.90;;;;;;4942302;29;20055;-85
2023/04/09 10:07:14;;;;;;;21.52;9.52;;;13.80;99.90;;;;;;4937370;29;20052;-85
2023/04/09 10:09:42;;;;;;;21.88;8.75;;;13.90;99.90;;;;;;4938553;29;20047;-85
2023/04/09 10:12:08;;;;;;;18.70;8.32;;;14.10;99.90;;;;;;4922398;29;20040;-85
2023/04/09 10:14:35;;;;;;;20.48;9.50;;;14.40;99.90;;;;;;4937149;29;20047;-85
2023/04/09 10:17:02;;;;;;;18.67;8.15;;;14.50;99.90;;;;;;4938823;29;20044;-84
2023/04/09 10:19:29;;;;;;;22.88;9.18;;;14.70;99.90;;;;;;4921828;29;20095;-83
2023/04/09 10:21:56;;;;;;;21.17;8.13;;;14.60;99.90;;;;;;4938890;29;20047;-84
2023/04/09 10:24:24;;;;;;;19.05;8.68;;;14.80;99.90;;;;;;4938408;29;20048;-83
2023/04/09 10:26:51;;;;;;;20.92;9.23;;;14.70;99.90;;;;;;4937090;29;20040;-83
2023/04/09 10:29:17;;;;;;;20.63;9.32;;;14.70;99.90;;;;;;4938236;29;20047;-88
2023/04/09 10:31:44;;;;;;;21.35;9.55;;;15.00;99.90;;;;;;4937325;29;20044;-86
2023/04/09 10:34:11;;;;;;;20.42;9.65;;;15.10;99.90;;;;;;4936290;29;20044;-86
2023/04/09 10:36:37;;;;;;;26.27;10.02;;;15.20;99.90;;;;;;4938180;29;20118;-86
2023/04/09 10:39:04;;;;;;;19.52;8.45;;;15.30;99.90;;;;;;4938004;29;20144;-86
2023/04/09 10:41:31;;;;;;;22.35;9.63;;;15.50;99.90;;;;;;4936489;29;20040;-86
2023/04/09 10:43:58;;;;;;;21.85;9.93;;;15.50;99.90;;;;;;4937992;29;20061;-84
2023/04/09 10:46:28;;;;;;;22.50;10.50;;;15.80;99.90;;;;;;4921489;29;20040;-83
2023/04/09 10:48:55;;;;;;;17.80;8.82;;;16.20;99.90;;;;;;4938006;29;20055;-84
2023/04/09 10:51:22;;;;;;;21.55;9.60;;;16.60;99.90;;;;;;4937409;29;20094;-86
2023/04/09 10:53:49;;;;;;;22.17;10.00;;;17.00;99.90;;;;;;4921077;29;20099;-82
2023/04/09 10:56:16;;;;;;;21.88;10.55;;;17.50;99.90;;;;;;4938148;29;20454;-85
2023/04/09 10:58:42;;;;;;;22.27;9.80;;;17.70;99.90;;;;;;4937924;29;20071;-85
2023/04/09 11:01:09;;;;;;;18.35;8.85;;;17.70;99.90;;;;;;4911956;29;20051;-87
2023/04/09 11:03:36;;;;;;;21.55;9.82;;;17.60;99.90;;;;;;4935110;29;20055;-87
2023/04/09 11:06:04;;;;;;;21.95;9.93;;;17.60;99.90;;;;;;4916958;29;20375;-85
2023/04/09 11:08:31;;;;;;;21.48;10.70;;;17.70;99.90;;;;;;4919812;29;20040;-84
2023/04/09 11:10:59;;;;;;;23.25;10.60;;;17.90;99.90;;;;;;4919273;29;20123;-86
2023/04/09 11:13:27;;;;;;;21.45;11.00;;;18.40;99.90;;;;;;4917479;29;20059;-83
2023/04/09 11:15:53;;;;;;;21.98;11.02;;;18.40;99.90;;;;;;4923535;29;20036;-89
2023/04/09 11:18:20;;;;;;;20.92;10.00;;;18.40;99.90;;;;;;4928914;29;20040;-87
2023/04/09 11:20:47;;;;;;;19.80;9.70;;;18.80;99.90;;;;;;4922259;29;20051;-83
2023/04/09 11:26:00;;;;;;;21.98;11.18;;;19.10;99.90;;;;;;4919412;29;21511;-84
2023/04/09 11:28:27;;;;;;;22.08;9.23;;;19.10;98.70;;;;;;4926002;29;20043;-85
2023/04/09 11:30:54;;;;;;;22.40;11.20;;;19.20;97.20;;;;;;4924029;29;20473;-82
2023/04/09 11:36:08;;;;;;;21.88;10.93;;;18.90;99.90;;;;;;4935518;29;20468;-82
2023/04/09 11:38:35;;;;;;;21.80;10.63;;;19.30;97.90;;;;;;4935764;29;20126;-87
2023/04/09 11:41:02;;;;;;;21.80;9.98;;;19.20;95.50;;;;;;4936379;29;20132;-84
2023/04/09 11:46:14;;;;;;;24.50;12.10;;;19.70;96.40;;;;;;4928162;29;20043;-84
2023/04/09 11:48:41;;;;;;;24.40;11.55;;;19.90;97.10;;;;;;4924336;29;20403;-85
2023/04/09 11:51:07;;;;;;;25.13;11.75;;;20.30;96.20;;;;;;4918216;29;20459;-83
2023/04/09 11:53:36;;;;;;;22.95;10.82;;;20.30;93.50;;;;;;4924652;29;20376;-83
2023/04/09 11:56:06;;;;;;;23.88;10.55;;;20.90;95.00;;;;;;4939384;29;20039;-85
2023/04/09 11:58:32;;;;;;;20.60;15.95;;;20.80;91.60;;;;;;4935112;29;20043;-83
2023/04/09 12:00:59;;;;;;;22.30;11.52;;;20.20;91.00;;;;;;4929006;29;20044;-83
2023/04/09 12:03:27;;;;;;;23.92;14.18;;;20.00;91.60;;;;;;4927487;29;20036;-84
2023/04/09 12:05:54;;;;;;;21.10;11.90;;;20.10;92.20;;;;;;4932492;29;20493;-84
2023/04/09 12:08:20;;;;;;;23.77;12.05;;;20.50;93.60;;;;;;4926308;29;20044;-84
2023/04/09 12:10:47;;;;;;;22.70;12.30;;;20.70;93.00;;;;;;4919547;29;20102;-84
2023/04/09 12:13:15;;;;;;;18.55;14.10;;;20.80;91.10;;;;;;4920094;29;20039;-85
2023/04/09 12:15:45;;;;;;;18.77;9.65;;;21.20;90.70;;;;;;4935217;29;20035;-83
2023/04/09 12:18:12;;;;;;;22.48;14.38;;;21.60;85.70;;;;;;4927296;29;20043;-82
2023/04/09 12:20:38;;;;;;;21.70;15.40;;;21.30;87.00;;;;;;4927660;29;20043;-85
2023/04/09 12:23:05;;;;;;;18.75;13.55;;;21.20;85.30;;;;;;4935866;29;20055;-83
2023/04/09 12:25:32;;;;;;;18.67;13.32;;;20.80;82.20;;;;;;4922327;29;20440;-87
2023/04/09 12:27:58;;;;;;;18.95;10.50;;;21.00;80.90;;;;;;4919960;29;20144;-85
2023/04/09 12:30:25;;;;;;;19.13;15.00;;;21.20;81.80;;;;;;4920670;29;20122;-84
2023/04/09 12:32:52;;;;;;;23.90;15.85;;;21.50;87.00;;;;;;4929673;29;20159;-86
2023/04/09 12:35:20;;;;;;;21.08;15.15;;;21.50;83.80;;;;;;4927360;29;20044;-86
2023/04/09 12:37:47;;;;;;;19.58;14.90;;;21.60;79.30;;;;;;4932739;29;20404;-88
2023/04/09 12:40:14;;;;;;;21.60;15.52;;;21.20;79.70;;;;;;4920997;29;20079;-84
2023/04/09 12:42:41;;;;;;;22.25;15.70;;;21.00;78.70;;;;;;4919811;29;20549;-82
2023/04/09 12:45:08;;;;;;;20.67;14.65;;;20.90;80.50;;;;;;4922513;29;20048;-83
2023/04/09 12:47:35;;;;;;;18.63;14.27;;;20.80;81.00;;;;;;4947535;29;20035;-82